You are here: Home Procurement Price Agreement List (PA #)

Price Agreement List (PA #)

Please Note: APS Contracts will no longer be referenced as Blanket Purchase Orders (BPO's), rather all contracts will be referred to as Price Agreements (PA #'s).

<< Back to Procurement

Looking for something in particular? Click on the column headers to sort by a category, or press Ctrl+F (or CMD+F on a Mac) and type in a search term.

 PA #   Bid   Buyer   Vendor #   Vendor   Description   Award Terms   Comments 
14936 SLC 45191 Cynthia Jiron Sign Language Services for Special Education 1512716400000 Dec 08, 2017 - Feb 19, 2018
14923 18-012MM-SM Michael Madrid Varitec Solutions Inc. Pre-Selection for Variable Refrigerant Flow (VRF) System 1510815600000 Nov 16, 2017 - Nov 15, 2021
14922 18-012MM-SM Michael Madrid 28031 Trane Pre-Selection for Variable Refrigerant Flow (VRF) System 1510815600000 Nov 16, 2017 - Nov 15, 2021
14921 18-012MM-SM Michael Madrid Sigler Pre-Selection for Variable Refrigerant Flow (VRF) System 1510815600000 Nov 16, 2017 - Nov 15, 2021
14920 18-012MM-SM Michael Madrid 11875 Norman S. Wright Co. Pre-Selection for Variable Refrigerant Flow (VRF) System 1510815600000 Nov 16, 2017 - Nov 15, 2021
14919 18-012MM-SM Michael Madrid Johnstone Supply Pre-Selection for Variable Refrigerant Flow (VRF) System 1510815600000 Nov 16, 2017 - Nov 15, 2021
14915 18-019MM-SM MPM 17194 TLC Plumbing and Utility HVAC Parts and Repair 1510124400000 Nov 08, 2017 - Nov 07, 2021
14914 18-019MM-SM MPM 32159 Kinetic Improvement HVAC Parts and Repair 1510124400000 Nov 08, 2017 - Nov 07, 2021
14913 18-007KN KNM 19037 Nasco School Supply Kits 1508392800000 Oct 19, 2017 - Oct 18, 2022
14912 18-007KN KNM 39741 Kits for Kidz School Supply Kits 1508392800000 Oct 19, 2017 - Oct 18, 2022
14911 18-007KN KNM 31560 Educational Products Inc. School Supply Kits 1508392800000 Oct 19, 2017 - Oct 18, 2022
14900 17-085SC-DW SLC 13145 Vigil Contracting Services Inc. Painting Services 1506837600000 Oct 01, 2017 - Sep 30, 2023
14899 17-085SC-DW SLC 31784 Omni Construction Painting Services 1506837600000 Oct 01, 2017 - Sep 30, 2023
14883 17-078DD KNM 12943 Contract Associates Furniture - All Types 1505973600000 Sep 21, 2017 - Sep 20, 2023
14898 17-078DD MPG 12744 VIRCO Inc Furniture - All Types 1505973600000 Sep 21, 2017 - Sep 20, 2023
14897 17-078DD MPG 44985 Texas Furniture Source Furniture - All Types 1505973600000 Sep 21, 2017 - Sep 20, 2023
14896 17-078DD MPG 32057 Staples Furniture - All Types 1505973600000 Sep 21, 2017 - Sep 20, 2023
14895 17-078DD MPG 112321 School Specialty Furniture - All Types 1505973600000 Sep 21, 2017 - Sep 20, 2023
14894 17-078DD MPG 12313 School Equipment Inc Furniture - All Types 1505973600000 Sep 21, 2017 - Sep 20, 2023
14893 17-078DD MPG 18758 Sandia Office Supply Furniture - All Types 1505973600000 Sep 21, 2017 - Sep 20, 2023
14892 17-078DD MPG 44984 Office Scapes Furniture - All Types 1505973600000 Sep 21, 2017 - Sep 20, 2023
14891 17-078DD MPG 11809 New Mexico School Products Furniture - All Types 1505973600000 Sep 21, 2017 - Sep 20, 2023
14890 17-078DD MPG 44983 MeTEOR Education LLC Furniture - All Types 1505973600000 Sep 21, 2017 - Sep 20, 2023
14889 17-078DD MPG 11401 Lakeshore Learning Materials Furniture - All Types 1505973600000 Sep 21, 2017 - Sep 20, 2023
14888 17-078DD MPG 13572 Kaplan Early Learning Company Furniture - All Types 1505973600000 Sep 21, 2017 - Sep 20, 2023
14887 17-078DD MPG 11170 Hertz Furniture Furniture - All Types 1505973600000 Sep 21, 2017 - Sep 20, 2023
14886 17-078DD MPG 11066 Goodmans Interior Structures Furniture - All Types 1505973600000 Sep 21, 2017 - Sep 20, 2023
14885 17-078DD MPG 24446 Government & Educational Furnishings Enterprises Furniture - All Types 1505973600000 Sep 21, 2017 - Sep 20, 2023
14884 17-078DD MPG 10824 Education Technologies Inc. Furniture - All Types 1505973600000 Sep 21, 2017 - Sep 20, 2023
14883 17-078DD MPG 12943 Contract Associates Furniture - All Types 1505973600000 Sep 21, 2017 - Sep 20, 2023
14882 17-078DD MPG 12208 Community Playthings Furniture - All Types 1505973600000 Sep 21, 2017 - Sep 20, 2023
14881 17-078DD MPG 10440 Business Environments Furniture - All Types 1505973600000 Sep 21, 2017 - Sep 20, 2023
14880 17-078DD MPG 44982 Brewer Educational Resources Furniture - All Types 1505973600000 Sep 21, 2017 - Sep 20, 2023
14879 17-078DD MPG 39750 Beck Total Office Interiors Furniture - All Types 1505973600000 Sep 21, 2017 - Sep 20, 2023
14846 17-073KN KNM 19037 Nasco Classroom Manipulatives (Math,Language Arts, Arts & Crafts, Early Learning,FCS) 1503900000000 Aug 28, 2017 - Aug 27, 2025
14855 17-073KN KNM 12646 Triarco Classroom Manipulatives (Math,Language Arts, Arts & Crafts, Early Learning,FCS) 1503900000000 Aug 28, 2017 - Aug 27, 2025
14854 17-073KN KNM 38213 Teacher Heaven Inc. Classroom Manipulatives (Math,Language Arts, Arts & Crafts, Early Learning,FCS) 1503900000000 Aug 28, 2017 - Aug 27, 2025
14853 17-073KN KNM 23315 Splash! Publications Classroom Manipulatives (Math,Language Arts, Arts & Crafts, Early Learning,FCS) 1503900000000 Aug 28, 2017 - Aug 27, 2025
14852 17-073KN KNM 12321 School Specialty Classroom Manipulatives (Math,Language Arts, Arts & Crafts, Early Learning,FCS) 1503900000000 Aug 28, 2017 - Aug 27, 2025
14851 17-073KN KNM 12310 Scholastic Classroom Manipulatives (Math,Language Arts, Arts & Crafts, Early Learning,FCS) 1503900000000 Aug 28, 2017 - Aug 27, 2025
14850 17-073KN KNM 12259 S & S Worldwide Classroom Manipulatives (Math,Language Arts, Arts & Crafts, Early Learning,FCS) 1503900000000 Aug 28, 2017 - Aug 27, 2025
14849 17-073KN KNM 45031 Fun Express Classroom Manipulatives (Math,Language Arts, Arts & Crafts, Early Learning,FCS) 1503900000000 Aug 28, 2017 - Aug 27, 2025
14848 17-073KN KNM 11741 National School Products Classroom Manipulatives (Math,Language Arts, Arts & Crafts, Early Learning,FCS) 1503900000000 Aug 28, 2017 - Aug 27, 2025
14847 17-073KN KNM 18906 National Educational Systems Classroom Manipulatives (Math,Language Arts, Arts & Crafts, Early Learning,FCS) 1503900000000 Aug 28, 2017 - Aug 27, 2025
14845 17-073KN KNM Maxi Aids Classroom Manipulatives (Math,Language Arts, Arts & Crafts, Early Learning,FCS) 1503900000000 Aug 28, 2017 - Aug 27, 2025
14844 17-073KN KNM 11401 Lakeshore Learning Materials Classroom Manipulatives (Math,Language Arts, Arts & Crafts, Early Learning,FCS) 1503900000000 Aug 28, 2017 - Aug 29, 2025
14843 17-073KN KNM 39741 Kits for Kidz Classroom Manipulatives (Math,Language Arts, Arts & Crafts, Early Learning,FCS) 1503900000000 Aug 28, 2017 - Aug 27, 2025
14842 17-073KN KNM 13572 Kaplan Early Learning Company Classroom Manipulatives (Math,Language Arts, Arts & Crafts, Early Learning,FCS) 1503900000000 Aug 28, 2017 - Aug 27, 2025
14841 17-073KN KNM 11251 Innovative Learning Concepts (TouchMath) Classroom Manipulatives (Math,Language Arts, Arts & Crafts, Early Learning,FCS) 1503900000000 Aug 28, 2017 - Aug 27, 2025
14840 17-073KN KNM 11150 Health Edco Classroom Manipulatives (Math,Language Arts, Arts & Crafts, Early Learning,FCS) 1503900000000 Aug 28, 2017 - Aug 27, 2025
14839 17-073KN KNM 10885 ETA Hand2Mind Classroom Manipulatives (Math,Language Arts, Arts & Crafts, Early Learning,FCS) 1503900000000 Aug 28, 2017 - Aug 29, 2025
14838 17-073KN KNM 10798 EAI Classroom Manipulatives (Math,Language Arts, Arts & Crafts, Early Learning,FCS) 1503900000000 Aug 28, 2017 - Aug 27, 2025
14837 17-073KN KNM 10764 Discount School Supply Classroom Manipulatives (Math,Language Arts, Arts & Crafts, Early Learning,FCS) 1503900000000 Aug 28, 2017 - Aug 27, 2025
14836 17-073KN KNM Classroom Library Classroom Manipulatives (Math,Language Arts, Arts & Crafts, Early Learning,FCS) 1503900000000 Aug 28, 2017 - Aug 27, 2025
14835 17-073KN KNM Brewer Educational Resources Classroom Manipulatives (Math,Language Arts, Arts & Crafts, Early Learning,FCS) 1503900000000 Aug 28, 2017 - Aug 27, 2025
14834 17-073KN KNM 10749 Blick Art Materials Classroom Manipulatives (Math,Language Arts, Arts & Crafts, Early Learning,FCS) 1503900000000 Aug 28, 2017 - Aug 27, 2025
14833 17-073KN KNM 10063 Adventures in Learning NM Classroom Manipulatives (Math,Language Arts, Arts & Crafts, Early Learning,FCS) 1503900000000 Aug 28, 2017 - Aug 27, 2025
14832 17-073KN KNM Acorn Naturalists Classroom Manipulatives (Math,Language Arts, Arts & Crafts, Early Learning,FCS) 1503900000000 Aug 28, 2017 - Aug 27, 2025
14831 17-073KN KNM 23961 ACE Educational Classroom Manipulatives (Math,Language Arts, Arts & Crafts, Early Learning,FCS) 1503900000000 Aug 28, 2017 - Aug 27, 2025
14871 18-003KN-AM KNM 12321 School Specialty Books 1503900000000 Aug 28, 2017 - Aug 27, 2021
14873 18-003KN-AM KNM 36663 Textbook Warehouse Books 1503900000000 Aug 28, 2017 - Aug 27, 2021
14872 18-003KN-AM KNM 37592 Superior Text Books 1503900000000 Aug 28, 2017 - Aug 27, 2021
14870 18-003KN-AM KNM 12012 Perma-Bound Books Books 1503900000000 Aug 28, 2017 - Aug 27, 2021
14889 18-003KN-AM KNM 11946 Page 1 Books Books 1503900000000 Aug 28, 2017 - Aug 27, 2021
14868 18-003KN-AM KNM 44406 Mrs. Nelson's Library Services Books 1503900000000 Aug 28, 2017 - Aug 27, 2021
14867 18-003KN-AM KNM 22169 Mackin Educational resources Books 1503900000000 Aug 28, 2017 - Aug 27, 2021
14866 18-003KN-AM KNM 11341 Junior Library Guild Books 1503900000000 Aug 28, 2017 - Aug 27, 2021
14865 18-003KN-AM KNM 40175 Follett School Solutions Inc Books 1503900000000 Aug 28, 2017 - Aug 27, 2021
14864 18-003KN-AM KNM Complete Book & Media Supply LLC Books 1503900000000 Aug 28, 2017 - Aug 27, 2021
14863 18-003KN-AM KNM Classroom Library Books 1503900000000 Aug 28, 2017 - Aug 27, 2021
14862 18-003KN-AM KNM 28941 Cengage Books 1503900000000 Aug 28, 2017 - Aug 27, 2021
14861 18-003KN-AM KNM 10394 Booksource Books 1503900000000 Aug 28, 2017 - Aug 27, 2021
14860 18-003KN-AM KNM Bedford Freeman & Worth Publishing Grp Books 1503900000000 Aug 28, 2017 - Aug 27, 2021
14859 18-003KN-AM KNM 10319 Barnes & Noble Books 1503900000000 Aug 28, 2017 - Aug 27, 2021
14858 18-003KN-AM KNM 38394 AKJ Books 1503900000000 Aug 28, 2017 - Aug 27, 2021
14857 18-003KN-AM KNM Advanced Educational Products Inc Books 1503900000000 Aug 28, 2017 - Aug 27, 2021
14856 18-003KN-AM KNM A to Z Books LLC Books 1503900000000 Aug 28, 2017 - Aug 27, 2021
14875 17-087MM-KV MPM 10290 B&D Industries Inc. Plumbing Contractor-On Demand 1503900000000 Aug 28, 2017 - Aug 27, 2020
14878 17-087MM-KV MPM 34698 Yearout Services LLC Plumbing Contractor-On Demand 1503900000000 Aug 28, 2017 - Aug 27, 2020
14876 17-087MM-KV MPM 11309 JB Henderson Construction Plumbing Contractor-On Demand 1503900000000 Aug 28, 2017 - Aug 27, 2020
14877 17-087MM-KV MPM 12520 Sun State Mechanical Inc. Plumbing Contractor-On Demand 1503900000000 Aug 28, 2017 - Aug 27, 2020
14824 18-004MS MGS 28093 Shamrock Foods Delivered Fresh Fruit & Vegetables # 2 (Broad Line/Produce Distributors Only) 1503122400000 Aug 19, 2017 - Aug 18, 2018
14823 18-004MS MGS 32055 Quality Fruit & Vegetable Co. Delivered Fresh Fruit & Vegetables # 2 (Broad Line/Produce Distributors Only) 1503122400000 Aug 19, 2017 - Aug 18, 2018
14822 18-004MS MGS Peterson Farms Fresh, Inc Delivered Fresh Fruit & Vegetables # 2 (Broad Line/Produce Distributors Only) 1503122400000 Aug 19, 2017 - Aug 18, 2018
14821 18-004MS MGS 35522 Labatt Food Service Delivered Fresh Fruit & Vegetables # 2 (Broad Line/produce Distributors Only) 1503122400000 Aug 19, 2017 - Aug 18, 2018
14815 17-090MS MGS 37904 Wagner Farms NM Produce Growers (Direct Purchase Only) 1503122400000 Aug 19, 2017 - Aug 18, 2018
14814 17-090MS MGS 29857 Rancho de Santa Fe NM Produce Growers (Direct Purchase Only) 1503122400000 Aug 19, 2017 - Aug 18, 2018
14813 17-090MS MGS 42174 North Valley Organics NM Produce Growers (Direct Purchase Only) 1503122400000 Aug 19, 2017 - Aug 18, 2018
14812 17-090MS MGS 38535 Agri-Cultura Network NM Produce Growers (Direct Purchase Only) 1503122400000 Aug 19, 2017 - Aug 18, 2018
14846 17-073KN KNM 19037 Nasco Classroom Manipulatives (Math,Language Arts, Arts & Crafts, Early Learning,FCS) 1502949600000 Aug 17, 2017 - Aug 27, 2025
14829 14-035SC-AM SLC 44898 Martha Williams Sign Language Services for Special Education 1501567200000 Aug 01, 2017 - Feb 19, 2018
14760 17-081MS MGS 38733 Daxwell Grocery Products 1501394400000 Jul 30, 2017 - Jun 30, 2018
14820 17-089MS MGS 12631 Good Source Solutions Inc./dba Tools for Schools Frozen Produce 1501048800000 Jul 26, 2017 - Jul 25, 2018
14819 17-089MS MGS 11873 Sysco New Mexico Frozen Produce 1501048800000 Jul 26, 2017 - Jul 25, 2018
14818 17-089MS MGS 38264 J.R. Simplot Company Frozen Produce 1501048800000 Jul 26, 2017 - Jul 25, 2018
14711 17-059MS-KN MGS 32262 Out of the Shell, LLC dba Yangs 5th Taste Commodity Processed Foods for Food and Nutrition Services 1498888800000 Jul 01, 2017 - Jun 30, 2018
14710 17-059MS-KN MGS 12667 Tyson Prepared Foods Commodity Processed Foods for Food and Nutrition Services 1498888800000 Jul 01, 2017 - Jun 30, 2018
14709 17-059MS-KN MGS 38265 Trident Seafoods Corporation Commodity Processed Foods for Food and Nutrition Services 1498888800000 Jul 01, 2017 - Jun 30, 2018
14708 17-059MS-KN MGS 36475 Smucker Foodservice, Inc. Commodity Processed Foods for Food and Nutrition Services 1498888800000 Jul 01, 2017 - Jun 30, 2018
14707 17-059MS-KN MGS 27075 Schwan's Food Service, Inc. Commodity Processed Foods for Food and Nutrition Services 1498888800000 Jul 01, 2017 - Jun 30, 2018
14706 17-059MS-KN MGS 25527 Red Gold, LLC Commodity Processed Foods for Food and Nutrition Services 1498888800000 Jul 01, 2017 - Jun 30, 2018
14705 17-059MS-KN MGS 28169 Pilgrims Pride Corp. Commodity Processed Foods for Food and Nutrition Services 1498888800000 Jul 01, 2017 - Jun 30, 2018
14704 17-059MS-KN MGS 36476 National Food Group Commodity Processed Foods for Food and Nutrition Services 1498888800000 Jul 01, 2017 - Jun 30, 2018
14703 17-059MS-KN MGS 42777 Nardone Bros. Baking Co. Commodity Processed Foods for Food and Nutrition Services 1498888800000 Jul 01, 2017 - Jun 30, 2018
14702 17-059MS-KN MGS 16664 Mrs. Clark's Foods Commodity Processed Foods for Food and Nutrition Services 1498888800000 Jul 01, 2017 - Jun 30, 2018
14701 17-059MS-KN MGS 13072 Michael Foods Commodity Processed Foods for Food and Nutrition Services 1498888800000 Jul 01, 2017 - Jun 30, 2018
14700 17-059MS-KN MGS 24476 MCI Foods Inc. Commodity Processed Foods for Food and Nutrition Services 1498888800000 Jul 01, 2017 - Jun 30, 2018
14699 17-059MS-KN MGS 29887 McCain Foods Commodity Processed Foods for Food and Nutrition Services 1498888800000 Jul 01, 2017 - Jun 30, 2018
14698 17-059MS-KN MGS 40270 Land O' Lakes Commodity Processed Foods for Food and Nutrition Services 1498888800000 Jul 01, 2017 - Jun 30, 2018
14697 17-059MS-KN MGS 28276 JTM Provisions Commodity Processed Foods for Food and Nutrition Services 1498888800000 Jul 01, 2017 - Jun 30, 2018
14696 17-059MS-KN MGS 24464 Jennie-O Turkey Commodity Processed Foods for Food and Nutrition Services 1498888800000 Jul 01, 2017 - Jun 30, 2018
14695 17-059MS-KN MGS 38267 Integrated Food Service Commodity Processed Foods for Food and Nutrition Services 1498888800000 Jul 01, 2017 - Jun 30, 2018
14694 17-059MS-KN MGS 34020 High Liner Foods Commodity Processed Foods for Food and Nutrition Services 1498888800000 Jul 01, 2017 - Jun 30, 2018
14693 17-059MS-KN MGS 31840 ConAgra Foods, Inc. Commodity Processed Foods for Food and Nutrition Services 1498888800000 Jul 01, 2017 - Jun 30, 2018
14690 17-059MS-KN MGS 28726 Basic American Foods Commodity Processed Foods for Food and Nutrition Services 1498888800000 Jul 01, 2017 - Jun 30, 2018
14689 17-059MS-KN MGS 35057 Asian Food Solutions Commodity Processed Foods for Food and Nutrition Services 1498888800000 Jul 01, 2017 - Jun 30, 2018
14688 17-059MS-KN MGS 21405 Alpha Foods Commodity Processed Foods for Food and Nutrition Services 1498888800000 Jul 01, 2017 - Jun 30, 2018
14687 17-059MS-KN MGS 37000 Advance Pierre Foods Commodity Processed Foods for Food and Nutrition Services 1498888800000 Jul 01, 2017 - Jun 30, 2018
14786 17-080MS MGS 10639 Creamland Dairies Distribution of Fresh Milk and Dairy Products 1498888800000 Jul 01, 2017 - Jun 22, 2018
14785 17-082MS MGS 12131 R&B Commercial Service, Inc. Preventative Maintenance & Repair Service for Kitchen Equipment 1498888800000 Jul 01, 2017 - Jun 30, 2023
14784 17-082MS MGS 42586 Budget Climate Control Preventative Maintenance & Repair Service for Kitchen Equipment 1498888800000 Jul 01, 2017 - Jun 30, 2023
14783 17-084MS MGS 12131 R&B Commercial Service, Inc. Appliances/Commercial & Residential-Discount from List 1498888800000 Jul 01, 2017 - Jun 30, 2021
14781 17-084MS MGS 11590 McComas Sales Appliances/Commercial & Residential-Discount from List 1498888800000 Jul 01, 2017 - Jun 30, 2021
14780 17-084MS MGS 42311 Business Systems Appliances/Commercial & Residential-Discount from List 1498888800000 Jul 01, 2017 - Jun 30, 2021
14779 17-084MS MGS 10305 Baillios Appliances Appliances/Commercial & Residential-Discount from List 1498888800000 Jul 01, 2017 - Jun 30, 2021
14778 17-081MS MGS 32252 Western Paper Grocery Products 1498888800000 Jul 01, 2017 - Jun 30, 2018
14777 17-081MS MGS 12762 Wallace Packaging, LLC Grocery Products 1498888800000 Jul 01, 2017 - Jun 30, 2018
14776 17-081MS MGS 11873 Sysco New Mexico,LLC Grocery Products 1498888800000 Jul 01, 2017 - Jun 30, 2018
14775 17-081MS MGS 43254 Super Bakery Grocery Products 1498888800000 Jul 01, 2017 - Jun 30, 2018
14774 17-081MS MGS 40400 Sun-Maid Growers of California Grocery Products 1498888800000 Jul 01, 2017 - Jun 30, 2018
14773 17-081MS MGS 12477 Standard Restaurant Supply Grocery Products 1498888800000 Jul 01, 2017 - Jun 30, 2018
14772 17-081MS MGS 44833 Sky Blue Foods Grocery Products 1498888800000 Jul 01, 2017 - Jul 30, 2018
14771 17-081MS MGS 28093 Shamrock Foods Grocery Products 1498888800000 Jul 01, 2017 - Jun 30, 2018
14770 17-081MS MGS 44835 Schreiber Foods International, Inc. Grocery Products 1498888800000 Jul 01, 2017 - Jun 30, 2018
14769 17-081MS MGS 14512 NM Bakery and Restaurant Supply Grocery Products 1498888800000 Jul 01, 2017 - Jun 30, 2018
14768 17-081MS MGS 16664 Mrs. Clark's Foods Grocery Products 1498888800000 Jul 01, 2017 - Jun 30, 2018
14767 17-081MS MGS 35522 Labatt Food Service Grocery Products 1498888800000 Jul 01, 2017 - Jun 30, 2018
14766 17-081MS MGS 44832 J&J Snack Foods Corp Grocery Products 1498888800000 Jul 01, 2017 - Jun 30, 2018
14765 17-081MS MGS 39875 Interstate Packaging LLC Grocery Products 1498888800000 Jul 01, 2017 - Jun 30, 2018
14764 17-081MS MGS 38830 Gregory Packaging Inc. Grocery Products 1498888800000 Jul 01, 2017 - Jun 30, 2018
14763 17-081MS MGS 42123 General Mills, Inc. Grocery Products 1498888800000 Jul 01, 2017 - Jun 30, 2018
14762 17-081MS MGS 43256 Foster Poultry Farms Grocery Products 1498888800000 Jul 01, 2017 - Jun 30, 2018
14761 17-081MS MGS 35056 Food of New Mexico Grocery Products 1498888800000 Jul 01, 2017 - Jun 30, 2018
14759 17-081MS MGS 42120 The Dannon Company Grocery Products 1498888800000 Jul 01, 2017 - Jun 30, 2018
14758 17-081MS MGS 44834 Cookietree Bakeries Grocery Products 1498888800000 Jul 01, 2017 - Jun 30, 2018
14757 17-081MS MGS 31840 ConAgra Brands, Inc. Grocery Products 1498888800000 Jul 01, 2017 - Jun 30, 2018
14756 17-081MS MGS 37286 Churchfield Trading Co. Grocery Products 1498888800000 Jul 01, 2017 - Jun 30, 2018
14755 17-081MS MGS 40403 Cal-Tex Citrus juice, LP/dba Country Pure Foods Grocery Products 1498888800000 Jul 01, 2017 - Jul 30, 2018
14754 17-081MS MGS 42124 Buena Vista Foods Grocery Products 1498888800000 Jul 01, 2017 - Jun 30, 2018
14753 17-081MS MGS 10339 Ben E. Keith Grocery Products 1498888800000 Jul 01, 2017 - Jun 30, 2018
14752 17-081MS MGS 38732 Atlantic Beverage Co. Grocery Products 1498888800000 Jul 01, 2017 - Jun 30, 2018
14751 17-081MS MGS 40406 ARRK Enterprises Grocery Products 1498888800000 Jul 01, 2017 - Jun 30, 2018
14810 17-088MM-SM MPM 13963 PlaySafe LLC Playground Safety Audit 1498802400000 Jun 30, 2017 - Jun 29, 2021
14728 17-076MS MGS 12166 Reddy Ice Corporation Packaged Ice Delivery Service 1493791200000 May 03, 2017 - May 02, 2023
14727 17-065DW-MG DWD 30312 Paul Davis Restoration Restoration & Repair Services 1493791200000 May 03, 2017 - May 02, 2021
14726 17-065DW-MG DWD Mooring Recovery Services Restoration & Repair Services 1493791200000 May 03, 2017 - May 02, 2021
14725 17-065DW-MG DWD 30346 GEB Inc., DBA Steamatic of Albuquerque Restoration & Repair Services 1493791200000 May 03, 2017 - May 02, 2021
14255
Amendment 2
15-044MM-SL MPM 10290 B&D Industries, Inc. Repair Services for HVAC Units and Controls on Demand 1493272800000 Apr 27, 2017 - Apr 26, 2019
14257 15-044MM-SL MPM 34698 Yearout Service, LLC Repair Services for HVAC Units and Controls on Demand 1493272800000 Apr 27, 2017 - Apr 26, 2019
14722 17-074MS MGS 28091 SERVPRO of South Albuquerque Hood Cleaning Services 1493013600000 Apr 24, 2017 - Apr 23, 2023
14721 17-074MS MGS RUJO Services,LLC Hood Cleaning Services 1493013600000 Apr 24, 2017 - Apr 23, 2023
14479 16-025MM-AM MPM 25469 PA Architects Architectural Design Services - Multiple Projects 1492668000000 Apr 20, 2017 - Apr 19, 2020
14683 BID 17-064MG MPG 12206 Riddell/All American Football Equipment Reconditioning & Recertification 1489644000000 Mar 16, 2017 - Mar 15, 2025
14680 17-058SC-DW DWD 10286 AFP New Mexico Fire Sprinkler Systems 1488524400000 Mar 03, 2017 - Mar 02, 2023
14471 16-020MM-SL MPM 14174 Beaudin GanzeConsulting Engineers, Inc. Independent Building Commissioning Services 1488438000000 Mar 02, 2017 - Mar 01, 2020
14477 16-021MM-AM MPM 42958 Hudspeth & Associates, Inc. Asbestos and Environmental Abatement Services on Demand 1487919600000 Feb 24, 2017 - Feb 23, 2020
14476 16-021MM-AM MPM 42858 Environmental Remediation Management Services Asbestos and Environmental Abatement Services on Demand 1487919600000 Feb 24, 2017 - Feb 23, 2020
14478 16-021MM-AM MPM 13119 Keer Remediation, Inc. Asbestos and Environmental Abatement Services on Demand 1487919600000 Feb 24, 2017 - Feb 23, 2020
14476 16-021MM-AM MPM 42858 Environmental Remediation Management Services Asbestos and Environmental Abatement Services on Demand 1487919600000 Feb 24, 2017 - Feb 23, 2020
14677.1 MPM 11215 Huitt-Zollars Inc. Qualifications-Based Architectural Services for Multiple Projects 1487142000000 Feb 15, 2017 - Feb 14, 2021
14209 #15-033MM-AM MPM 11310 High Mesa Consulting Group Line Spotting 1484982000000 Jan 21, 2017 - Jan 20, 2019
14678 17-055MS-KM MGS 44310 Ecolab Dish Machine Service/Maintenance & Supplies 1484809200000 Jan 19, 2017 - Jan 18, 2023
14669 17-047KN-RA KNM 10739 Desert Paper & Envelope Company Multi-Use Office Paper 1484809200000 Jan 19, 2017 - Jan 18, 2023
14668 17-047KN-RA KNM 12678 Veritiv Operating Company Multi-Use Office Paper 1484809200000 Jan 19, 2017 - Jan 18, 2023
14667 17-047KN-RA KNM 12283 Sandia Paper Company Multi-Use Office Paper 1484809200000 Jan 19, 2017 - Jan 18, 2023
14672 BID #17-045MM-KV MPM 13145 Vigil Contracting Services, Inc. Installed Signs & Pavement Markings 1484722800000 Jan 18, 2017 - Jan 17, 2023
14673 BID #17-045MM-KV MPM 21028 Highway Supply LLC Installed Signs & Pavement Markings 1484722800000 Jan 18, 2017 - Jan 17, 2023
14671 BID #17-045MM-KV MPM 10041 AccuStripe Inc. Installed Signs & Pavement Markings 1484722800000 Jan 18, 2017 - Jan 17, 2023
14666 17-027MG-KM MPG 25870 Varsity Spirit Fashion Athletic Equipment & Related Goods 1484118000000 Jan 11, 2017 - Jan 10, 2021
14665 17-027MG-KM MPG 12705 US Games, A Division of BSN Sports Athletic Equipment & Related Goods 1484118000000 Jan 11, 2017 - Jan 10, 2021
14664 17-027MG-KM MPG 23162 Tomek Sports Athletic Equipment & Related Goods 1484118000000 Jan 11, 2017 - Jan 10, 2021
14663 17-027MG-KM MPG 42675 Tennis Ace Athletic Equipment & Related Goods 1484118000000 Jan 11, 2017 - Jan 10, 2021
14662 17-027MG-KM MPG 31041 Streamline Swimming Athletic Equipment & Related Goods 1484118000000 Jan 11, 2017 - Jan 10, 2021
14661 17-027MG-KM MPG 12259 S&S Worldwide Athletic Equipment & Related Goods 1484118000000 Jan 11, 2017 - Jan 10, 2021
14660 17-027MG-KM MPG 42276 Score Sports Athletic Equipment & Related Goods 1484118000000 Jan 11, 2017 - Jan 10, 2021
14659 17-027MG-KM MPG 12321 School Specialty Athletic Equipment & Related Goods 1484118000000 Jan 11, 2017 - Jan 10, 2021
14658 17-027MG-KM MPG 24507 School Outfitters Athletic Equipment & Related Goods 1484118000000 Jan 11, 2017 - Jan 10, 2021
14657 17-027MG-KM MPG 12314 School Health Corporation Athletic Equipment & Related Goods 1484118000000 Jan 11, 2017 - Jan 10, 2021
14656 17-027MG-KM MPG 12206 Riddell/All American Athletic Equipment & Related Goods 1484118000000 Jan 11, 2017 - Jan 10, 2021
14655 17-027MG-KM MPG 12117 Pyramid School Products Athletic Equipment & Related Goods 1484118000000 Jan 11, 2017 - Jan 10, 2021
14654 17-027MG-KM MPG 19037 Nasco Education Athletic Equipment & Related Goods 1484118000000 Jan 11, 2017 - Jan 10, 2021
14653 17-027MG-KM MPG 11509 MFAC, LLC Athletic Equipment & Related Goods 1484118000000 Jan 11, 2017 - Jan 10, 2021
14652 17-027MG-KM MPG 11607 Medco Supply Co. Athletic Equipment & Related Goods 1484118000000 Jan 11, 2017 - Jan 10, 2021
14651 17-027MG-KM MPG 22651 LISCO Sports Athletic Equipment & Related Goods 1484118000000 Jan 11, 2017 - Jan 10, 2021
14649 17-027MG-KM MPG 24956 Home (Commercial) Fitness Warehouse Athletic Equipment & Related Goods 1484118000000 Jan 11, 2017 - Jan 10, 2021
14648 17-027MG-KM MPG 11069 Gopher Sport Athletic Equipment & Related Goods 1484118000000 Jan 11, 2017 - Jan 10, 2021
14647 17-027MG-KM MPG 11009 Gardenswartz Team Sales Athletic Equipment & Related Goods 1484118000000 Jan 11, 2017 - Jan 10, 2021
14646 17-027MG-KM MPG 38221 Churchich Recreation, LLC Athletic Equipment & Related Goods 1484118000000 Jan 11, 2017 - Jan 10, 2021
14645 17-027MG-KM MPG 10427 BSN Sports Athletic Equipment & Related Goods 1484118000000 Jan 11, 2017 - Jan 10, 2021
14644 17-027MG-KM MPG 10369 Bill Fritz Sports Corporation Athletic Equipment & Related Goods 1484118000000 Jan 11, 2017 - Jan 10, 2021
14643 17-027MG-KM MPG 10239 Arroyo Del Oso Golf Course Athletic Equipment & Related Goods 1484118000000 Jan 11, 2017 - Jan 10, 2021
14642 17-027MG-KM MPG 12887 Aluminum Athletic Equipment Co. Athletic Equipment & Related Goods 1484118000000 Jan 11, 2017 - Jan 10, 2021
14641 17-027MG-KM MPG 29695 Alert Services Inc. Athletic Equipment & Related Goods 1484118000000 Jan 11, 2017 - Jan 10, 2021
14640 17-027MG-KM MPG 29158 AK Sales & Consulting Inc. Athletic Equipment & Related Goods 1484118000000 Jan 11, 2017 - Jan 10, 2021
14639 17-027MG-KM MPG 44216 Advanced Exercise Athletic Equipment & Related Goods 1484118000000 Jan 11, 2017 - Jan 10, 2021
14638 17-027MG-KM MPG 38388 ABQ Jock Shop Athletic Equipment & Related Goods 1484118000000 Jan 11, 2017 - Jan 10, 2021
13765 14-025MM-AM MPM 38574 EDI Integrative Consulting, LLC LEED Certification Consulting Services General LEED 1482044400000 Dec 18, 2016 - Dec 17, 2018 On Demand Qualifications-Based
13766
Addendum #5
14-025MM-AM MPM 13963 Vibrantcy, LLC LEED Certification Consulting Services General LEED 1482044400000 Dec 18, 2016 - Dec 17, 2018 On Demand Qualifications-Based
13767 14-025MM-AM MPM 10412 Bridgers Paxton Consulting Engineers, Inc. LEED Certification Consulting Services General LEED 1482044400000 Dec 18, 2016 - Dec 17, 2018 On Demand Qualifications-Based
13768 14-025MM-AM MPM 38574 EDI Integrative Consulting, LLC LEED Certification Consulting Services General LEED 1482044400000 Dec 18, 2016 - Dec 17, 2018 On Demand Qualifications-Based
13769 14-025MM-AM MPM 39890 Halcom Consulting LEED Certification Consulting Services General LEED 1482044400000 Dec 18, 2016 - Dec 17, 2018 On Demand Qualifications-Based
13770 14-025MM-AM MPM 10926 FBT Architects LEED Certification Consulting Services General LEED 1482044400000 Dec 18, 2016 - Dec 17, 2018 On Demand Qualifications-Based
13772 14-025MM-AM MPM 13772 WH Pacific LEED Certification Consulting Services General LEED 1482044400000 Dec 18, 2016 - Dec 17, 2018 On Demand Qualifications-Based
13773 14-025MM-AM MPM 39667 Architectural Energy Corporation LEED Certification Consulting Services General LEED 1482044400000 Dec 18, 2016 - Dec 17, 2018 On Demand Qualifications-Based
13774 14-025MM-AM MPM 38574 EDI Integrative Consulting, LLC LEED Certification Consulting Services General LEED 1482044400000 Dec 18, 2016 - Dec 17, 2018 On Demand Qualifications-Based
13775 14-025MM-AM MPM 10926 FBT Architects LEED Certification Consulting Services General LEED 1482044400000 Dec 18, 2016 - Dec 17, 2018 On Demand Qualifications-Based
13776 14-025MM-AM MPM 39890 Halcom Consulting LEED Certification Consulting Services General LEED 1482044400000 Dec 18, 2016 - Dec 16, 2018 On Demand Qualifications-Based
14620 Bid 17-046MS-KM MGS 12762 Wallace Packaging, LLC Cutlery Kits 1481958000000 Dec 17, 2016 - Dec 16, 2022
14204 15-031MM-AM MPM 10290 B&D Industries, Inc. Electrical Services on Demand 1481958000000 Dec 17, 2016 - Dec 16, 2018
14206 15-031MM-AM MPM 41030 US Electrical Corporation Electrical Services on Demand 1481958000000 Dec 17, 2016 - Dec 16, 2018
14617 17-040DD-DD DMD 12321 School Specialty Boards and Related Accessories 1479538800000 Nov 19, 2016 - Nov 18, 2022
14616 17-040DD-DD DMD Ritmo Investments Inc dba TMMS Boards and Related Accessories 1479538800000 Nov 19, 2016 - Nov 18, 2022
14615 17-040DD-DD DMD 20479 Inca Enterprises, LLC Boards and Related Accessories 1479538800000 Nov 19, 2016 - Nov 18, 2022
14192 15-030MM-SL MPM 37053 Academy Reprographics Reprographics on Demand 1479452400000 Nov 18, 2016 - Nov 17, 2018
14613 17-025MM-KV MPM 10902 ExerPlay Inc. Playground Equipment & Replacement Parts 1479366000000 Nov 17, 2016 - Nov 16, 2021
14612 17-025MM-KV MPM 35925 Creative Recreational Design, Inc. Playground Equipment & Replacement Parts 1479366000000 Nov 17, 2016 - Nov 16, 2021
14611 17-025MM-KV MPM School Equipment, Inc. Playground Equipment & Replacement Parts 1479366000000 Nov 17, 2016 - Nov 16, 2021
14610 17-025MM-KV MPM 36042 Play! LLC Playground Equipment & Replacement Parts 1479366000000 Nov 17, 2016 - Nov 16, 2021
14609 17-025MM-KV MPM 16113 Triple M Recreation Playground Equipment & Replacement Parts 1479366000000 Nov 17, 2016 - Nov 16, 2021
14608 17-025MM-KV MPM 12053 Play Well Group Inc. Playground Equipment & Replacement Parts 1479366000000 Nov 17, 2016 - Nov 16, 2021
14607 17-024KN-DW SLC 10960 Flinn Scientific, Inc. Science Supplies & Equipment 1479366000000 Nov 17, 2016 - Nov 16, 2022
14606 17-024KN-DW SLC 13689 Bio Corporation Science Supplies & Equipment 1479366000000 Nov 17, 2016 - Nov 16, 2022
14605 17-024KN-DW SLC 24217 Pasco Scientific Science Supplies & Equipment 1479366000000 Nov 17, 2016 - Nov 16, 2022
14604 17-024KN-DW SLC 11153 Pitsco Education Science Supplies & Equipment 1479366000000 Nov 17, 2016 - Nov 16, 2022
14603 17-024KN-DW SLC 24507 School Outfitters Science Supplies & Equipment 1479366000000 Nov 17, 2016 - Nov 16, 2022
14602 17-024KN-DW SLC 10477 Carolina Biological Supply Company Science Supplies & Equipment 1479366000000 Nov 17, 2016 - Nov 16, 2022
14601 17-024KN-DW SLC Acorn Naturalists Science Supplies & Equipment 1479366000000 Nov 17, 2016 - Nov 16, 2022
14600 17-024KN-DW SLC 41564 Backbone Communication Science Supplies & Equipment 1479366000000 Nov 17, 2016 - Nov 16, 2022
14599 17-024KN-DW SLC 10798 EAI Education Science Supplies & Equipment 1479366000000 Nov 17, 2016 - Nov 16, 2022
14598 17-024KN-DW SLC 10885 ETA Hand2Mind Science Supplies & Equipment 1479366000000 Nov 17, 2016 - Nov 16, 2022
14597 17-024KN-DW SLC 12765 Ward Science Science Supplies & Equipment 1479366000000 Nov 17, 2016 - Nov 16, 2022
14596 17-024KN-DW SLC 19037 Nasco Modesto Science Supplies & Equipment 1479366000000 Nov 17, 2016 - Nov 16, 2022
14595 17-024KN-DW SLC 12321 Frey Scientific Science Supplies & Equipment 1479366000000 Nov 17, 2016 - Nov 16, 2022
14594 17-024KN-DW SLC 12297 Sargen-Welch/VWR Science Supplies & Equipment 1479366000000 Nov 17, 2016 - Nov 16, 2022
14593 17-024KN-DW SLC 10950 Fisher Scientific Company, LLC Science Supplies & Equipment 1479366000000 Nov 17, 2016 - Nov 16, 2022
14583 17-021RA-KN SLC/DWD 11081 Graybar Electrical Supplies 1479366000000 Nov 17, 2016 - Nov 16, 2022
14588 17-018RA-KN SLC/DWD 11328 Johnstone Supply Evaporative Coolers 1479366000000 Nov 17, 2016 - Nov 16, 2022
14590 17-018RA-KN SLC/DWD 10933 Ferguson Enterprises, Inc. Evaporative Coolers 1479366000000 Nov 17, 2016 - Nov 16, 2022
14589 17-018RA-KN SLC/DWD 35293 R.E. Michel Evaporative Coolers 1479366000000 Nov 17, 2016 - Nov 16, 2022
14587 17-018RA-KN SLC/DWD 11071 Gorman Industries Evaporative Coolers 1479366000000 Nov 17, 2016 - Nov 16, 2022
14586 17-021RA-KN SLC/DWD 12752 Voss Lighting Electrical Supplies 1479366000000 Nov 17, 2016 - Nov 16, 2022
14584 17-021RA-KN SLC/DWD 11733 National Electrical Supply Electrical Supplies 1479366000000 Nov 17, 2016 - Nov 16, 2022
14582 17-021RA-KN SLC/DWD 18812 Dealers Electric Supply Electrical Supplies 1479366000000 Nov 17, 2016 - Nov 16, 2022
14581 17-021RA-KN SLC/DWD 10396 Border States Electric Electrical Supplies 1479366000000 Nov 17, 2016 - Nov 16, 2022
14614 17-026DW-KN DWD 38241 All Star Fire Protection Automatic Fire Suppressant Systems 1479366000000 Nov 17, 2016 - Nov 16, 2022
14592 17-022KN-RA SLC/DWD 40701 Vulcan Materials Company Sand & Gravel Products 1479366000000 Nov 17, 2016 - Nov 16, 2022
14591 17-022KN-RA SLC/DWD 22679 Buildology, Inc. Sand & Gravel Products 1479366000000 Nov 17, 2016 - Nov 16, 2022
14575 17-013MS-KM MGS 11328 Johnstone Supply Kitchen Parts & Supplies (Supplemental) 1476943200000 Oct 20, 2016 - Jul 19, 2020
14573 17-013MS-KM MGS 10773 Doc Salvage Supply Kitchen Parts & Supplies (Supplemental) 1476943200000 Oct 20, 2016 - Jul 19, 2020
14579 17-023DW-KN DWD 12363 The Sherwin Williams Company Full Service Paint and Related Materials 1476943200000 Oct 20, 2016 - Sep 19, 2022
14578 17-023DW-KN DWD 44109 PPG Architectural Finishes, Inc. Full Service Paint and Related Materials 1476943200000 Oct 20, 2016 - Oct 19, 2022
14577 17-023DW-KN DWD 12778 Dunn Edwards Paints Full Service Paint and Related Materials 1476943200000 Oct 20, 2016 - Oct 19, 2022
14571 17-012MS-KM MGS 11590 McComas Sales Culinary Arts Equipment (Supplemental) 1476943200000 Oct 20, 2016 - Jul 31, 2020 Discount from List
14572 17-013MS-KM MGS 10098 Albuquerque Belt & Chain Kitchen Parts & Supplies (Supplemental) 1476943200000 Oct 20, 2016 - Jul 19, 2020 Discount from List
14574 17-013MS-KM MGS Heritage Food Service Group, Inc. Kitchen Parts & Supplies (Supplemental) 1476943200000 Oct 20, 2016 - Jul 19, 2020 Discount from List
14576 17-013MS-KM MGS 12514 Summit Electric Supply Kitchen Parts & Supplies (Supplemental) 1476943200000 Oct 20, 2016 - Jul 19, 2020 Discount from List
14569 17-009DD-DD DMD 29354 Security Hardware Solutions LLC Door Hardware Accessories 1476079200000 Oct 10, 2016 - Oct 09, 2022
14568 17-009DD-DD DMD 11270 Intermountain Lock & Security Supply Door Hardware Accessories 1476079200000 Oct 10, 2016 - Oct 09, 2022
14567 17-009DD-DD DMD 11078 Grant's Steel Sash Door & Hardware, Inc. Door Hardware Accessories 1476079200000 Oct 10, 2016 - Oct 09, 2022
14566 17-009DD-DD DMD 35462 DH Pace dba Overhead Door of Albquerque Door Hardware Accessories 1476079200000 Oct 10, 2016 - Oct 09, 2022
14565 17-009DD-DD DMD 44071 Accredited Lock & Door Hardware Door Hardware Accessories 1476079200000 Oct 10, 2016 - Oct 09, 2022
14560 17-019KN-RA SLC 24322 Sierra Irrigation Supply Inc. Irrigation Equipment & Replacement Parts 1474956000000 Sep 27, 2016 - Sep 26, 2022
14559 17-019KN-RA SLC 11782 Neumark Company Irrigation Equipment & Replacement Parts 1474956000000 Sep 27, 2016 - Sep 26, 2022
14557
Addendum # 1
17-020RA-KN SLC 10197 American Waste Removal Pumping & Disposal Services for Septic Tanks, Grease and/or Sand Traps on Demand for Albuquerque Public Schools 1474956000000 Sep 27, 2016 - Sep 26, 2022
14564 17-011DW-KM DWD 38113 MTA Pest Control, LLC Pest Control Services 1474437600000 Sep 21, 2016 - Sep 20, 2024
14563 17-011DW-KM DWD 34247 Trinity Pest Control LLC Pest Control Services 1474437600000 Sep 21, 2016 - Sep 20, 2024
14561 16-040SC-KM DMD 38422 APA Specialties Restroom Accessories on Demand and Installation Services 1474437600000 Sep 21, 2016 - Sep 20, 2022 Discount from List
14553 14-035SC-AM SSS 43895 Emily Mize Interpreting Services Signed Language Services for Special Education 1473400800000 Sep 09, 2016 - Feb 19, 2018
14551 14-035SC-AM SLC 43893 Sarah Walton Signed Language Services for Special Education 1473400800000 Sep 09, 2016 - Feb 19, 2018
14552 14-035SC-AM SLC 43894 Hands on Communication Signed Language Services for Special Education 1473400800000 Sep 09, 2016 - Feb 19, 2018
14554 14-035SC-AM SLC 43896 Rachel C. Salas Signed Language Services for Special Education 1473400800000 Sep 09, 2016 - Feb 19, 2018
14108 14-035SC-AM SSS 40625 Brandi L. Burrell Signed Language Services for Special Education 1471672800000 Aug 20, 2016 - Feb 19, 2018
14455 14-035SC-AM SSS 42765 Sydney Alexandra Signed Language Services for Special Education 1471672800000 Aug 20, 2016 - Feb 19, 2018 1st year w/2 add'l 1 year renewals
14556 16-041DW-KM DWD 43898 84 Lumber Company Ceiling Tile 1471500000000 Aug 18, 2016 - Aug 17, 2022
14548 17-006DW-KM DWD 36783 Innovative Moving Systems Moving Services and Supplies on Demand 1471500000000 Aug 18, 2016 - Aug 17, 2022
14547 17-006DW-KM DWD 29057 Moving Solutions Moving Services and Supplies on Demand 1471500000000 Aug 18, 2016 - Aug 17, 2022
14546 17-006DW-KM DWD 43870 Buehler Moving of New Mexico Moving Services and Supplies on Demand 1471500000000 Aug 18, 2016 - Aug 17, 2022
14545 17-006DW-KM DWD 35118 Apaca Moving and Storage Moving Services and Supplies on Demand 1471500000000 Aug 18, 2016 - Aug 17, 2022
14543
Amendment 1
16-036SC-KM SLC 10445 Butler Sheet Metal Sheet Metal Fabrication and Installation 1471500000000 Aug 18, 2016 - Aug 17, 2020
14544 16-036SC-KM SLC 11309 JB Henderson Construction Company Sheet Metal Fabrication and Installation 1471500000000 Aug 18, 2016 - Aug 17, 2020
14549 16-042SC-KM SLC 43871 Alpha Southwest, Inc. Repair and Maintenance Service for Water Wells, Pumps and Chlorinators on Request 1471500000000 Aug 18, 2016 - Aug 17, 2020
14550 16-042SC-KM SLC 12236 Rodgers & Company Inc. Repair and Maintenance Service for Water Wells, Pumps and Chlorinators on Request 1471500000000 Aug 18, 2016 - Aug 17, 2020
14009 14-056MS-SL MGS 20133 Flower Baking Company Bread, Fresh 1470031200000 Aug 01, 2016 - Jul 31, 2018
14018 14-055MS-AM MGS 10291 B&H Wholesale Soft Serve Beverages & Snack Items 1470031200000 Aug 01, 2016 - Jul 31, 2018
14019 14-055MS-AM MGS 37186 Big Boy Ice Cream, LLC Soft Serve Beverages & Snack Items 1470031200000 Aug 01, 2016 - Jul 31, 2018
14020 14-055MS-AM MGS 10719 Dee's Foodservice Soft Serve Beverages & Snack Items 1470031200000 Aug 01, 2016 - Jul 31, 2018
14022 14-055MS-AM MGS 40407 MJM Marketing Soft Serve Beverages & Snack Items 1470031200000 Aug 01, 2016 - Jul 31, 2018
14023 14-055MS-AM MGS 36476 National Food Group, Inc. Soft Serve Beverages & Snack Items 1470031200000 Aug 01, 2016 - Jul 31, 2018
14024 14-055MS-AM MGS 11873 Sysco New Mexico, LLC Soft Serve Beverages & Snack Items 1470031200000 Aug 01, 2016 - Jul 31, 2018
14535 16-047MS-KM MGS 19037 Nasco Modesto Culinary Arts Equipment 1470031200000 Aug 01, 2016 - Jul 31, 2020 Discount from List
14536 16-047MS-KM MGS 11764 National Restaurant Supply Culinary Arts Equipment 1470031200000 Aug 01, 2016 - Jul 31, 2020 Discount from List
14537 16-035MG MPG 10342 Benchmark Wood Floors, Inc. Gymnasium Floor Maintenance 1469080800000 Jul 21, 2016 - Jul 20, 2020
14538 16-035MG MPG 13987 Robert Cohen Company LLC Gymnasium Floor Maintenance 1469080800000 Jul 21, 2016 - Jul 20, 2020
14518 16-044MS-SL MGS 10820 Ed's Refrigeration Inc. Kitchen Parts & Supplies 1468994400000 Jul 20, 2016 - Jul 19, 2020 Discount from List
14519 16-044MS-SL MGS 10933 Ferguson Enterprises, Inc. Kitchen Parts & Supplies 1468994400000 Jul 20, 2016 - Jul 19, 2020 Discount from List
14520 16-044MS-SL MGS 43766 Parts Town, LLC Kitchen Parts & Supplies 1468994400000 Jul 20, 2016 - Jul 19, 2020 Discount from List
14521 16-044MS-SL MGS 12131 R&B Commercial Service Kitchen Parts & Supplies 1468994400000 Jul 20, 2016 - Jul 19, 2020 Discount from List
14522 16-044MS-SL MGS 26833 Southern Ice Equipment Distributors Kitchen Parts & Supplies 1468994400000 Jul 20, 2016 - Jul 19, 2020 Discount from List
14523 16-044MS-SL MGS 43765 Whaley Foodservice, LLC Kitchen Parts & Supplies 1468994400000 Jul 20, 2016 - Jul 19, 2020 Discount from List
14540 16-038RA-KM RRA 43416 Adams + Crow P.C. Special Education Legal Counsel Services 1468994400000 Jul 20, 2016 - Jul 19, 2020
14541 16-038RA-KM RRA 24782 Walsh Gallegos Special Education Legal Counsel Services 1468994400000 Jul 20, 2016 - Jul 19, 2020
14542 16-038RA-KM RRA Cuddy & McCarthy Special Education Legal Counsel Services 1468994400000 Jul 20, 2016 - Jul 19, 2020
14524 16-048DW-KM DWD 37137 Schneider Laboratories Global Inc. Laboratory Analysis of Air and Bulk Samples 1468821600000 Jul 18, 2016 - Jul 17, 2020
14525 16-048DW-KM DWD 12122 Quantem Laboratories Laboratory Analysis of Air and Bulk Samples 1468821600000 Jul 18, 2016 - Jul 17, 2020
14051 14-059SC-AM SSS 26157 Bilingual-Multicultural Services, Inc. Speech and Language Pathology Services for Special Education 1468648800000 Jul 16, 2016 - Jul 15, 2018
14052
Amendment 1
14-059SC-AM SSS 28719 Community Rehab Associates, Inc. Speech and Language Pathology Services for Special Education 1468648800000 Jul 16, 2016 - Jul 15, 2018
14053
Amendment 1
14-059SC-AM SSS 19679 EBS Educational Based Services Speech and Language Pathology Services for Special Education 1468648800000 Jul 16, 2016 - Jul 15, 2018
14054 14-059SC-AM SSS 28685 Progressus Therapy, LLC Speech and Language Pathology Services for Special Education 1468648800000 Jul 16, 2016 - Jul 15, 2018
14055
Amendment 1
14-059SC-AM SSS 38285 Sunbelt Staffing, LLC Speech and Language Pathology Services for Special Education 1468648800000 Jul 16, 2016 - Jul 15, 2018
14059 14-059SC-AM SSS 40499 Cell Staff, LLC Speech and Language Pathology Services for Special Education 1468648800000 Jul 16, 2016 - Jul 15, 2018
14060 14-059SC-AM SSS 40500 CoreMedical Group Speech and Language Pathology Services for Special Education 1468648800000 Jul 16, 2016 - Jul 15, 2018
14061 14-059SC-AM SSS 40501 MyTherapyCompany, LLC Speech and Language Pathology Services for Special Education 1468648800000 Jul 16, 2016 - Jun 15, 2018
14062 14-059SC-AM SSS 40502 Professional Placement Resources, LLC Speech and Language Pathology Services for Special Education 1468648800000 Jul 16, 2016 - Jul 15, 2018
14063 14-059SC-AM SSS 40503 Three Strand Therapy, LLC Speech and Language Pathology Services for Special Education 1468648800000 Jul 16, 2016 - Jul 15, 2018
14506 16-027MS-AM MGS 12762 Wallace Packaging, LLC Food and Non Food Products 1467352800000 Jul 01, 2016 - Jun 30, 2018
14514 16-023DW-SL DWD 10396 Border States Electric Lamps 1463637600000 May 19, 2016 - May 18, 2020 Discount from List
14515 16-023DW-SL DWD 10603 Consolidated Electric Distributors Lamps 1463637600000 May 19, 2016 - May 18, 2020 Discount from List
14516 16-023DW-SL DWD 18812 Dealers Electric Supply Lamps 1463637600000 May 19, 2016 - May 18, 2020 Discount from List
14517 16-023DW-SL DWD 12514 Summit Electric Supply Lamps 1463637600000 May 19, 2016 - May 18, 2020 Discount from List
14256
Amendment 1
15-044MM-SL MPM 41621 Mechanical Control Solutions Repairs for HVAC Units 1461736800000 Apr 27, 2016 - Apr 26, 2019
14508 14-031MM-AM MPM 10721 Dekker Perich Sabatini Open Ended Architecture Services 1461564000000 Apr 25, 2016 - Apr 24, 2020
14507 14-031MM-AM MPM 13174 DWL Architects & Planners Inc of NM Open Ended Architecture Services 1461564000000 Apr 25, 2016 - Apr 24, 2020
13955 14-042GR-SL RCR 12129 CenturyLink Communication Services 1458540000000 Mar 21, 2016 - Mar 20, 2019
13956 14-042GR-SL RCR 41194 Level 3 Communications Communication Services 1458540000000 Mar 21, 2016 - Mar 20, 2019
14510 14-035SC-AM SLC 42967 Amanda Summers Signed Language Services for Special Education 1458540000000 Mar 21, 2016 - Feb 19, 2018
14477
Addendum #1
16-021MM-AM MPM 42957 Hudspeth & Associates Inc. Asbestos Abatement 1456297200000 Feb 24, 2016 - Feb 23, 2019
14404 14-035SC-AM SSS 28419 Shyla Huntley Signed Language Services for Special Education 1455951600000 Feb 20, 2016 - Feb 19, 2018
13830 14-035SC-AM SSS 38009 Jaymie L. Roybal Signed Language Services for Special Education 1455951600000 Feb 20, 2016 - Feb 19, 2018
14109
Addendum #1
14-035SC-AM SSS 40638 RC Interpreting Services Signed Language Services for Special Education 1455951600000 Feb 20, 2016 - Feb 19, 2018
14405 14-035SC-AM SSS 42543 Eubank Interpreting Services Signed Language Services for Special Education 1455951600000 Feb 20, 2016 - Feb 19, 2018
13828 14-035SC-AM SSS 39862 Amy Cresap Signed Language Services for Special Education 1455951600000 Feb 20, 2016 - Feb 19, 2018
14071 14-035SC-AM SSS 40572 Hartley ASL Interpreting Services Signed Language Services for Special Education 1455951600000 Feb 20, 2016 - Feb 19, 2018
14106 14-035SC-AM SSS 40645 Amy Bourque Signed Language Services for Special Education 1455951600000 Feb 20, 2016 - Feb 19, 2018
14107 14-035SC-AM SSS 40624 Elizabeth Ippel Signed Language Services for Special Education 1455951600000 Feb 20, 2016 - Feb 19, 2018
14142 14-035SC-AM SSS 40689 Dante W. Riccon Signed Language Services for Special Education 1455951600000 Feb 20, 2016 - Feb 19, 2018
14145 14-035SC-AM SSS 40723 Teri Jacquez Signed Language Services for Special Education 1455951600000 Feb 20, 2016 - Feb 19, 2018
13814 14-024RR-SL DMD 12678 Veritiv Operating Company Plastic Can Liners for Warehouse Stock 1455174000000 Feb 11, 2016 - Feb 10, 2018
13821 14-024RR-SL DMD 30512 Central Poly Corp. Plastic Can Liners for Warehouse Stock 1455174000000 Feb 11, 2016 - Feb 10, 2018
14208 #15-033MM-AM MPM 27280 Abasto Subsurface Utility Engineering Co LLC Line Spotting 1453359600000 Jan 21, 2016 - Jan 20, 2019
14650 17-027MG-KM MPG 32843 House of Soccer Athletic Equipment & Related Goods 1452495600000 Jan 11, 2016 - Jan 10, 2021
14463 16-019DW-AM MPG 12314 School Health Corporation Nursing Supplies 1452495600000 Jan 11, 2016 - Jan 10, 2019
14462 16-019DW-AM MPG 12117 Pyramid School Products Nursing Supplies 1452495600000 Jan 11, 2016 - Jan 10, 2019
14461 16-019DW-AM MPG 42778 Nashville Medical Nursing Supplies 1452495600000 Jan 11, 2016 - Jan 10, 2019
14460 16-019DW-AM MPG 42779 Medical Mega Nursing Supplies 1452495600000 Jan 11, 2016 - Jan 10, 2019
14459 16-019DW-AM MPG 20122 Henry Schein Medical Nursing Supplies 1452495600000 Jan 11, 2016 - Jan 10, 2019
14458 16-019DW-AM MPG 21430 Everything Medical Nursing Supplies 1452495600000 Jan 11, 2016 - Jan 10, 2019
14457 16-019DW-AM MPG 10354 Best Bid, Inc. Nursing Supplies 1452495600000 Jan 11, 2016 - Jan 10, 2019
14406 16-013RR-AM MPG 38221 Churchich Recreation, LLC Engineered Wood Fiber Surfacing 1448866800000 Nov 30, 2015 - Nov 29, 2019
14407 16-013RR-AM MPG 42633 The Fibar Group, LLC Engineered Wood Fiber Surfacing 1448866800000 Nov 30, 2015 - Nov 29, 2019
14408 16-013RR-AM MPG 39972 Mt. Taylor Manufacturing, LLC Engineered Wood Fiber Surfacing 1448866800000 Nov 30, 2015 - Nov 29, 2019
14194 15-028MM-SL MPM 10166 AMEC Foster Wheeler Environment & Infrastructure, Inc. Material and Geotechnical Testing 1447916400000 Nov 19, 2015 - Nov 18, 2018
14195 15-028MM-SL MPM 19826 Geo-Test, Inc. Material and Geotechnical Testing 1447916400000 Nov 19, 2015 - Nov 18, 2018
14196 15-028MM-SL MPM 35560 Terracon Consultants, Inc. Material and Geotechnical Testing 1447916400000 Nov 19, 2015 - Nov 18, 2018
14198 15-025MM-AM MPM 41016 Veneklasen Associates Inc. Acoustical Engineering 1447916400000 Nov 19, 2015 - Nov 18, 2018
14200 15-024RR-SL SLC/DWD 11043 Glaz-Tech Industries, Inc. Flat Glass for Maintenance and Operations on Demand 1447916400000 Nov 19, 2015 - Nov 18, 2018
14421 16-006SC-SL SSS 34774 Cross Country Staffing Inc., Assignment America dba Medical Staffing Network Nursing Services 1447830000000 Nov 18, 2015 - Nov 17, 2019
14422 16-006SC-SL SSS 42650 Heathlinx, Inc. dba Children's Nursing Services (CNS) Nursing Services 1447830000000 Nov 18, 2015 - Nov 17, 2019
14423 16-006SC-SL SSS 19437 Maxim Healthcare Services, Inc. Nursing Services 1447830000000 Nov 18, 2015 - Nov 17, 2019
14424 16-006SC-SL SSS 34386 RCM Health Care Services Division of RCM Nursing Services 1447830000000 Nov 18, 2015 - Nov 17, 2019
14425 16-012DW-SL MGS 10615 Contractor's Commercial Window Coverings (CCWC, Inc.) Window Coverings and Installation Services on Demand 1447830000000 Nov 18, 2015 - Nov 17, 2019
14426 16-012DW-SL SLC/DWD 18838 Jim Henson Sales Inc. Window Coverings and Installation Services on Demand 1447830000000 Nov 18, 2015 - Oct 17, 2018
14427 16-012DW-SL SLC/DWD 32202 Motorized Sun Solutions Window Coverings and Installation Services on Demand 1447830000000 Nov 18, 2015 - Nov 17, 2019
14585 17-021RA-KN SLC/DWD 12514 Summit Electric Supply Electrical Supplies 1447743600000 Nov 17, 2015 - Nov 16, 2022
14401 16-015SS-AM SSS 10682 D&H Distributing Company Graphing Calculators and Related Products 1445407200000 Oct 21, 2015 - Oct 20, 2019
14166 15-016MM-SL MPM 10387 Bohannan Huston Engineering Services: Civil 1444888800000 Oct 15, 2015 - Oct 14, 2018
14167 15-016MM-SL MPM 11310 High Mesa Consulting Group Engineering Services: Civil 1444888800000 Oct 15, 2015 - Oct 14, 2018
14168 15-016MM-SL MPM 12825 Wilson & Company Engineering Services: Civil 1444888800000 Oct 15, 2015 - Oct 14, 2018
14169 15-016MM-SL MPM 11411 Larkin Group NM Inc. Engineering Services: Civil 1444888800000 Oct 15, 2015 - Oct 14, 2018
14170 15-016MM-SL MPM 10412 Bridgers Paxton Consulting Engineers, Inc. Engineering Services: Electrical 1444888800000 Oct 15, 2015 - Oct 14, 2018
14171 15-016MM-SL MPM 12825 Wilson & Company Engineering Services: Electrical 1444888800000 Oct 15, 2015 - Oct 14, 2018
14173 15-016MM-SL MPM 10412 Bridgers Paxton Consulting Engineers, Inc. Engineering Services: Mechanical 1444888800000 Oct 15, 2015 - Oct 14, 2018
14174 15-016MM-SL MPM Beaudin GanzeConsulting Engineers, Inc. Engineering Services: Mechanical 1444888800000 Oct 15, 2015 - Oct 14, 2018
14175 15-016MM-SL MPM 29337 WH Pacific Engineering Services: Mechanical 1444888800000 Oct 15, 2015 - Oct 14, 2018
14176 15-016MM-SL MPM 10522 Chavez Grieves Engineering Services: Structural 1444888800000 Oct 15, 2015 - Oct 14, 2018
14177 15-016MM-SL MPM 10387 Bohannan Huston Engineering Services: Structural 1444888800000 Oct 15, 2015 - Oct 14, 2018
14178 15-016MM-SL MPM 11310 High Mesa Consulting Group Engineering Services: Surveying 1444888800000 Oct 15, 2015 - Oct 14, 2018
14179 15-016MM-SL MPM 10387 Bohannan Huston Engineering Services: Surveying 1444888800000 Oct 15, 2015 - Oct 14, 2018
14180 15-016MM-SL MPM 11411 Larkin Group NM Inc. Engineering Services: Surveying 1444888800000 Oct 15, 2015 - Oct 14, 2018
14181 15-016MM-SL MPM 12825 Wilson & Company Engineering Services: Surveying 1444888800000 Oct 15, 2015 - Oct 14, 2018
14182 15-019MM-AM MPM 11688 Morrow Reardon Wilkinson Miller Landscape Architect Services 1444888800000 Oct 15, 2015 - Oct 14, 2018
14183 15-019MM-AM MPM 10721 Dekker Perich Sabatini Landscape Architect Services 1444888800000 Oct 15, 2015 - Oct 14, 2018
14184 15-019MM-AM MPM 28918 Sites Southwest, LLC Landscape Architect Services 1444888800000 Oct 15, 2015 - Oct 14, 2018
14201 15-016MM-SL MPM 41027 Transmission & Distribution Services Engineering Services: Electrical 1444888800000 Oct 15, 2015 - Oct 14, 2018
14398 14-035SC-AM SSS 42398 Analise Romero Signed Language Services for Special Education 1443074400000 Sep 24, 2015 - Feb 19, 2018
14127 15-013RR-AM SSS/KNM 31553 Forest Scientific Corp. Industrial Arts Equipment 1441692000000 Sep 08, 2015 - Sep 07, 2018 Discount from List
14128 15-013RR-AM SSS/KNM 11646 Midwest Technology Products Industrial Arts Equipment 1441692000000 Sep 08, 2015 - Sep 07, 2018 Discount from List
14130 15-013RR-AM SSS/KNM 33950 Paxton/Patterson Industrial Arts Equipment 1441692000000 Sep 08, 2015 - Sep 07, 2018 Discount from List
14132 15-013RR-AM SSS/KNM 10420 Brodhead Garrett Industrial Arts Equipment 1441692000000 Sep 08, 2015 - Sep 07, 2018 Discount from List
14133 15-013RR-AM SSS/KNM 12839-P Woodworkers Supply Inc. Industrial Arts Equipment 1441692000000 Sep 08, 2015 - Sep 07, 2018 Discount from List
14075 15-006MM-SL MPG 25813 Altor Construction, Inc. Bituminous Paving & Related Work/Material on Demand 1440050400000 Aug 20, 2015 - Aug 19, 2018
14076 15-006MM-SL MPG 17194 TLC Plumbing & Utility Bituminous Paving & Related Work/Material on Demand 1440050400000 Aug 20, 2015 - Aug 19, 2018
14083 15-004SC-SL SLC/DWD 10773 Doc Salvage Supply Plumbing Supplies on Demand 1440050400000 Aug 20, 2015 - Aug 19, 2018
14084 15-004SC-SL SLC/DWD 10933 Ferguson Enterprises, Inc. Plumbing Supplies on Demand 1440050400000 Aug 20, 2015 - Aug 19, 2018
14085 15-004SC-SL SLC/DWD 10384 Bob Garrecht Supply Inc. Plumbing Supplies on Demand 1440050400000 Aug 20, 2015 - Aug 19, 2018
14086 15-004SC-SL SLC/DWD 10133 Albuquerque Winnelson Plumbing Supplies on Demand 1440050400000 Aug 20, 2015 - Aug 19, 2018
14191 15-004SC-SL SLC/DWD 40936 Perry Supply Co. Plumbing Supplies on Demand 1440050400000 Aug 20, 2015 - Aug 19, 2018
14393 15-065SC-AM SLC/DWD 12263 Safety Flare Inc. Fire Extinguishers & Related Materials on Demand for APS 1439877600000 Aug 18, 2015 - Aug 17, 2018
14394 15-065SC-AM SLC/DWD 42234 Fire Protectors, Inc. dba Fire Safety Inc. Fire Extinguishers & Related Materials on Demand for APS 1439877600000 Aug 18, 2015 - Aug 17, 2018
14384 15-064RR-SL SSS 24395 Accounting Principals, Inc. Temporary Staffing Services on Demand 1439532000000 Aug 14, 2015 - Aug 13, 2019
14385 15-064RR-SL SSS 42193 BEStstaff, Inc. Temporary Staffing Services on Demand 1439532000000 Aug 14, 2015 - Aug 13, 2019
14386 15-064RR-SL SSS 34541 Excel Staffing Companies Temporary Staffing Services on Demand 1439532000000 Aug 14, 2015 - Aug 13, 2019
14387 15-064RR-SL SSS 42191 itsQuest, Inc. Temporary Staffing Services on Demand 1439532000000 Aug 14, 2015 - Aug 13, 2019
14389 15-064RR-SL SSS 42193 Staffing Solutions Temporary Staffing Services on Demand 1439532000000 Aug 14, 2015 - Aug 13, 2019
14390 15-064RR-SL SSS 12749P Volt Workforce Solutions Temporary Staffing Services on Demand 1439532000000 Aug 14, 2015 - Aug 13, 2019
14341 16-004RR-SL DMD 10958 Fleming Chemical Co. Floor Care and/or Replacement Parts on Demand 1438840800000 Aug 06, 2015 - Aug 05, 2019
14343 16-004RR-SL DMD 12678 Veritiv Operating Company Floor Care and/or Replacement Parts on Demand 1438840800000 Aug 06, 2015 - Aug 05, 2019
14345 16-005RR-AM MPM 30312 Paul Davis Restoration Cleaning Services for APS 1438840800000 Aug 06, 2015 - Aug 05, 2019
14347 16-005RR-AM MPM 28309 Quality Maintenance Inc. Cleaning Services for APS 1438840800000 Aug 06, 2015 - Aug 05, 2019
14348 16-005RR-AM MPM 30313 Rockefeller's Cleaning & Restoration Co. Cleaning Services for APS 1438840800000 Aug 06, 2015 - Aug 05, 2019
14349 16-005RR-AM MPM 28091 Servpro of NE Albuquerque Cleaning Services for APS 1438840800000 Aug 06, 2015 - Aug 05, 2019
14350 15-061MG-AM MPG 38388 ABQ Jock Shop Athletic Clothing and Related Materials 1438754400000 Aug 05, 2015 - Aug 04, 2019
14351 15-061MG-AM MPG 20458 Absolute Quality Athletic Clothing and Related Materials 1438754400000 Aug 05, 2015 - Aug 04, 2019
14352 15-061MG-AM MPG 25197 Academy Sports, Inc. dba Albuquerque Baseball Academy Athletic Clothing and Related Materials 1438754400000 Aug 05, 2015 - Aug 04, 2019
14353 15-061MG-AM MPG 42276 American Soccer Company dba Score Sports Athletic Clothing and Related Materials 1438754400000 Aug 05, 2015 - Aug 04, 2019
14354 15-061MG-AM MPG 10427 BSN Sports Athletic Clothing and Related Materials 1438754400000 Aug 05, 2015 - Aug 04, 2019
14355 15-061MG-AM MPG 38533 Embroidery Plus Athletic Clothing and Related Materials 1438754400000 Aug 05, 2015 - Aug 04, 2019
14356 15-061MG-AM MPG 11009 Gardenswartz Team Sales Athletic Clothing and Related Materials 1438754400000 Aug 05, 2015 - Aug 04, 2019
14358 15-061MG-AM MPG 32843 House of Soccer Athletic Clothing and Related Materials 1438754400000 Aug 05, 2015 - Aug 04, 2019
14359 15-061MG-AM MPG 22350 MFAC, LLC (M-F Athletic) Athletic Clothing and Related Materials 1438754400000 Aug 05, 2015 - Aug 04, 2019
14360 15-061MG-AM MPG 35163 Organized Sportswear Athletic Clothing and Related Materials 1438754400000 Aug 05, 2015 - Aug 04, 2019
14361 15-061MG-AM MPG 12102 PS Ink Athletic Clothing and Related Materials 1438754400000 Aug 05, 2015 - Aug 04, 2019
14362 15-061MG-AM MPG 12117 Pyramid School Products Athletic Clothing and Related Materials 1438754400000 Aug 05, 2015 - Aug 04, 2019
14363 15-061MG-AM MPG 12206 Riddell/All American Athletic Clothing and Related Materials 1438754400000 Aug 05, 2015 - Aug 04, 2019
14364 15-061MG-AM MPG 31041 Streamline Swimming Athletic Clothing and Related Materials 1438754400000 Aug 05, 2015 - Aug 04, 2019
14365 15-061MG-AM MPG 25870 Varsity Spirit Fashion Athletic Clothing and Related Materials 1438754400000 Aug 05, 2015 - Aug 04, 2019
14366 15-061MG-AM MPG 12873 Zia Graphics Athletic Clothing and Related Materials 1438754400000 Aug 05, 2015 - Aug 04, 2019
14378
Amendment 1
Amendment 2
15-055SC-AM SSS 39359 Ardor Health Solutions Occupational and Physical Therapy Services for Special Education 1438754400000 Aug 05, 2015 - Aug 04, 2019
14379
Amendment 1
Amendment 2
15-055SC-AM SSS 26157 Bilingual-Multicultural Services, Inc. Occupational and Physical Therapy Services for Special Education 1438754400000 Aug 05, 2015 - Aug 04, 2019
14380
Amendment 2
15-055SC-AM SSS 10826 EASI Therapy & Diagnostic Services, Inc. Occupational and Physical Therapy Services for Special Education 1438754400000 Aug 05, 2015 - Aug 04, 2019
14381
Amendment 2
15-055SC-AM SSS 42201 EDU Healthcare Occupational and Physical Therapy Services for Special Education 1438754400000 Aug 05, 2015 - Aug 04, 2019
14382
Amendment 2
15-055SC-AM SSS 40501 MyTherapyCompany, LLC Occupational and Physical Therapy Services for Special Education 1438754400000 Aug 05, 2015 - Aug 04, 2019
14383
Amendment 2
15-055SC-AM SSS 23707 Soliant Health, Inc. Occupational and Physical Therapy Services for Special Education 1438754400000 Aug 05, 2015 - Aug 04, 2019
14400 15-061MG-AM MPG 10374 Black Duck, Inc. Athletic Clothing and Related Materials 1438754400000 Aug 05, 2015 - Aug 04, 2019
14335 15-059GR-AM RCR 26517 NACR (North American Communications Resource) VoIP Telephone Systems 1437372000000 Jul 20, 2015 - Jul 19, 2019
14337 15-057SC-AM SSS 40760 Wordsong LLC Student Mental Health Services for SFCS 1437372000000 Jul 20, 2015 - Jul 19, 2019
14338 15-057SC-AM SSS 42095 Kathleen M. Muehlenkamp, EdD, LPCC Student Mental Health Services for SFCS 1437372000000 Jul 20, 2015 - Jul 19, 2019
14339 15-057SC-AM SSS 42096 Southwest Pueblo Consultants & Counseling Services, LLC Student Mental Health Services for SFCS 1437372000000 Jul 20, 2015 - Jul 19, 2019
14066 14-052MM-SL MPM 13231 AnchorBuilt Inc. General Contractor - Small Projects on Demand 1437026400000 Jul 16, 2015 - Jul 15, 2018
14067
Addendum #4
14-052MM-SL MPM 11309 JB Henderson Construction Company General Contractor - Small Projects on Demand 1437026400000 Jul 16, 2015 - Jul 15, 2018
14068 14-052MM-SL MPM 23085 Rio Conchos Corporation General Contractor - Small Projects on Demand 1437026400000 Jul 16, 2015 - Jul 15, 2018
14069 14-052MM-SL MPM 40367 SDV Construction, Inc. General Contractor - Small Projects on Demand 1437026400000 Jul 16, 2015 - Jul 15, 2018
14279 15-056RR-SL SSS 33288 Blackout Theatre Community School Activities for APS 1435039200000 Jun 23, 2015 - Jun 22, 2019
14280 15-056RR-SL SSS Boys and Girls Clubs of Central New Mexico 39224 Community School Activities for APS 1435039200000 Jun 23, 2015 - Jun 22, 2019
14281 15-056RR-SL SSS 29851 Children's Choice Child Care Community School Activities for APS 1435039200000 Jun 23, 2015 - Jun 22, 2019
14282 15-056RR-SL SSS 32343 HMJ Enterprises, Inc. (dba Sylvan Learning Center) Community School Activities for APS 1435039200000 Jun 23, 2015 - Jun 22, 2019
14283 15-056RR-SL SSS 38899 Learners Chess Academy Community School Activities for APS 1435039200000 Jun 23, 2015 - Jun 22, 2019
14284
Amendment 2
15-056RR-SL SSS 34307 NM Community Faithlinks, Inc. Community School Activities for APS 1435039200000 Jun 23, 2015 - Jun 22, 2019
14285 15-056RR-SL SSS 12213 Atrisco Heritage Foundation (dba Rio Grande Educational Collaborative) Community School Activities for APS 1435039200000 Jun 23, 2015 - Jun 22, 2019
14286 15-056RR-SL SSS 40771 Sandia Electro-Optics Corporation (dba Engineering for Kids of NM, LLC) Community School Activities for APS 1435039200000 Jun 23, 2015 - Jun 22, 2019
14287 15-056RR-SL SSS 31323 Youth Development Inc. Community School Activities for APS 1435039200000 Jun 23, 2015 - Jun 22, 2019
14288 15-056RR-SL SSS 31773 YMCA of Central New Mexico Community School Activities for APS 1435039200000 Jun 23, 2015 - Jun 22, 2019
14049 14-048MM-SL MPG 32651 Sequoia Landscaping General Landscaping Services on Demand 1434607200000 Jun 18, 2015 - Jun 17, 2018
14050 14-048MM-SL MPG 12808 Westwind Landscaping, Inc. General Landscaping Services on Demand 1434607200000 Jun 18, 2015 - Jun 17, 2018
14275 15-051MM-AM MPM 10290 B&D Industries, Inc. Boilers and Related Services 1434520800000 Jun 17, 2015 - Jun 19, 2019
14276 15-051MM-AM MPM 17777 Donner Plumbing & Heating, Inc. Boilers and Related Services 1434520800000 Jun 17, 2015 - Jun 19, 2019
14277 15-051MM-AM MPM 17194 TLC Plumbing & Utility Boilers and Related Services 1434520800000 Jun 17, 2015 - Jun 19, 2019
14278 15-051MM-AM MPM 10513-P Chardan's Mechanical Inc. Boilers and Related Services 1434520800000 Jun 17, 2015 - Jun 19, 2019
14006 MPM 17715 The Hartman+Majewski Design Group Architectural Design Services 1432188000000 May 21, 2015 - May 20, 2018 Open End Contract
14007 MPM 11285 Integrated Design & Architecture Architectural Design Services 1432188000000 May 21, 2015 - May 20, 2018 Open End Contract
14008 MPM 40395 Mullen Heller Architecture PC Architectural Design Services 1432188000000 May 21, 2015 - May 20, 2018 Open End Contract
14258 15-049AM-SL SLC/DWD 14258 Bamert Seed Company Grass Seed and Fertilizer for Maintenance & Operations 1430892000000 May 06, 2015 - May 05, 2019
14259 15-049AM-SL SLC/DWD 10670 Curtis & Curtis Seed Grass Seed and Fertilizer for Maintenance & Operations 1430892000000 May 06, 2015 - May 05, 2019
14260 15-049AM-SL SLC/DWD 23474 SiteOne Landscape Supply Grass Seed and Fertilizer for Maintenance & Operations 1430892000000 May 06, 2015 - May 05, 2019
14261 15-049AM-SL SLC/DWD 40270 Winfield Grass Seed and Fertilizer for Maintenance & Operations 1430892000000 May 06, 2015 - May 05, 2019
14252 15-047RR-AM DMD 28967 Crisp Analytical Labs Transmission Electron Microscopy Services 1428386400000 Apr 07, 2015 - Apr 02, 2018
14253 15-048RR-SL DWD 27408 Desert Wind Transport Moving of Portable Buildings on Demand 1428386400000 Apr 07, 2015 - Apr 06, 2019
14254 15-048RR-SL DWD 10795 EGSM Inc. Moving of Portable Buildings on Demand 1428386400000 Apr 07, 2015 - Apr 06, 2019
14245 15-035DD-AM SLC/DWD 32299 Aire Filter Products Air Filters & Services 1422774000000 Feb 01, 2015 - Jan 31, 2019
14244 15-041GR-AM RRA 10691 P RBC Capital Markets Financial Advisory Services 1422428400000 Jan 28, 2015 - Jan 27, 2019
14202 15-015MG-AM DWD 12060 Poms & Associates Insurance Brokerage Services 1416466800000 Nov 20, 2014 - Nov 19, 2018
14095 15-012RR-SL DMD 14836 Brady Industries Janitorial Equipment & Supplies 1409637600000 Sep 02, 2014 - Sep 01, 2018 Discount from List
14096 15-012RR-SL DMD 38578 Coppola Supply, Inc. Janitorial Equipment & Supplies 1409637600000 Sep 02, 2014 - Sep 01, 2018 Discount from List
14097 15-012RR-SL DMD 10958 Fleming Chemical Co. Janitorial Equipment & Supplies 1409637600000 Sep 02, 2014 - Sep 01, 2018 Discount from List
14098 15-012RR-SL DMD 11417 LD Supply Janitorial Equipment & Supplies 1409637600000 Sep 02, 2014 - Sep 01, 2018 Discount from List
14099 15-012RR-SL DMD 12117 Pyramid School Products Janitorial Equipment & Supplies 1409637600000 Sep 02, 2014 - Sep 01, 2018 Discount from List
14100 15-012RR-SL DMD 18758 Sandia Office Supply Janitorial Equipment & Supplies 1409637600000 Sep 02, 2014 - Sep 01, 2018 Discount from List
14101 15-012RR-SL DMD 12356 Shamrock Supply Janitorial Equipment & Supplies 1409637600000 Sep 02, 2014 - Sep 01, 2018 Discount from List
14102 15-012RR-SL DMD 12678 Veritiv Operating Company Janitorial Equipment & Supplies 1409637600000 Sep 02, 2014 - Sep 01, 2018 Discount from List
14103 15-012RR-SL DMD 32252 Western Paper Janitorial Equipment & Supplies 1409637600000 Sep 02, 2014 - Aug 01, 2018 Discount from List
14104 15-012RR-SL DMD 40649 Minuteman International Inc. Janitorial Equipment & Supplies 1409637600000 Sep 02, 2014 - Sep 01, 2018 Discount from List
14105 15-012RR-SL DMD 12870 Acutiy Specialty Products, Inc. Janitorial Equipment & Supplies 1409637600000 Sep 02, 2014 - Sep 01, 2018 Discount from List
14110 15-001SC-AM SSS 40643 Shayna Schaefer, LISW Student Mental Health Services for SFCS 1409551200000 Sep 01, 2014 - Aug 31, 2018
14111 15-001SC-AM SSS 40644 Open Skies Healthcare Student Mental Health Services for SFCS 1409551200000 Sep 01, 2014 - Aug 31, 2018
14112 15-001SC-AM SSS 40646 Elevation Counseling LLC Student Mental Health Services for SFCS 1409551200000 Sep 01, 2014 - Aug 31, 2018
14116 15-001SC-AM SSS 29830 The Enhancement Center P.C. Student Mental Health Services for SFCS 1409551200000 Sep 01, 2014 - Aug 31, 2018
14118 15-001SC-AM SSS 28159 Lotus Behavioral Health, LLC Student Mental Health Services for SFCS 1409551200000 Sep 01, 2014 - Aug 31, 2018
14119 15-001SC-AM SSS 25473 Journeys Inc. Student Mental Health Services for SFCS 1409551200000 Sep 01, 2014 - Aug 31, 2018
14121 15-001SC-AM SSS 20296 Nancy Madrid Student Mental Health Services for SFCS 1409551200000 Sep 01, 2014 - Aug 31, 2018
14122 15-001SC-AM SSS 17508 A New Day, Inc. Student Mental Health Services for SFCS 1409551200000 Sep 01, 2014 - Aug 31, 2018
14123 15-001SC-AM SSS 23760 New Mexico Solutions Student Mental Health Services for SFCS 1409551200000 Sep 01, 2014 - Aug 31, 2018
14126 15-001SC-AM SSS 25563 Southwest Family Guidance Center & Institute Student Mental Health Services for SFCS 1409551200000 Sep 01, 2014 - Aug 31, 2018
14203 15-001SC-AM SSS 32307 Inner Guidance Student Mental Health Services for SFCS 1409551200000 Sep 01, 2014 - Aug 31, 2018
14077 14-053LJ-AM DWD 40629 BCH Construction Inc. Floor Covering and Installation Services 1408687200000 Aug 22, 2014 - Aug 21, 2018
14078 14-053LJ-AM DWD 10440 Business Environments Floor Covering and Installation Services 1408687200000 Aug 22, 2014 - Aug 21, 2018
14079 14-053LJ-AM DWD 11142 Harrison Contracting Company Floor Covering and Installation Services 1408687200000 Aug 22, 2014 - Aug 21, 2018
14080 14-053LJ-AM DWD 40628 Interface Americas Inc. Floor Covering and Installation Services 1408687200000 Aug 22, 2014 - Aug 21, 2018
14087 15-010GR-SL SSS 39310 Teresa Abbud-Garcia English - Spanish Interpretation Services 1408687200000 Aug 22, 2014 - Aug 21, 2018
14088 15-010GR-SL SSS 40642 Ana Chavez dba Traducciones e Interpretaciones English - Spanish Interpretation Services 1408687200000 Aug 22, 2014 - Aug 21, 2018
14089 15-010GR-SL SSS 36005 Maria Isabel Haverkamp English - Spanish Interpretation Services 1408687200000 Aug 22, 2014 - Aug 21, 2018
14090 15-010GR-SL SSS 39256 Tatyana Korsak English - Spanish Interpretation Services 1408687200000 Aug 22, 2014 - Aug 21, 2018
14091 15-010GR-SL SSS 39656 Carolyn Reynolds dba Language Naturally English - Spanish Interpretation Services 1408687200000 Aug 22, 2014 - Aug 21, 2018
14092 15-010GR-SL SSS 40635 Alma Ramirez English - Spanish Interpretation Services 1408687200000 Aug 22, 2014 - Aug 21, 2018
14093 15-010GR-SL SSS 40634 Johnathan Glynn dba Idiomas, LLC English - Spanish Interpretation Services 1408687200000 Aug 22, 2014 - Aug 21, 2018
14081 14-053LJ-AM DWD 30155 Raby Contract Floor Covering and Installation Services 1406008800000 Jul 22, 2014 - Aug 21, 2018
14065 14-052MM-SL MPM 10492 Cedars Construction Inc. General Contractor - Small Projects on Demand 1405490400000 Jul 16, 2014 - Jul 15, 2018
14144 MPM 40600 Edward Fitzgerald Architects Architectural Design Services 1400652000000 May 21, 2014 - May 21, 2018
13984 14-043RR-AM MPG 16751 Centennial Sales Sports/Pediatric Medicine Equipment & Supply Bid 1399442400000 May 07, 2014 - May 06, 2018
13985 14-043RR-AM MPG 29695 Alert Services Inc. Sports/Pediatric Medicine Equipment & Supply Bid 1399442400000 May 07, 2014 - May 06, 2018
13986 14-043RR-AM MPG 10427 BSN Sports Sports/Pediatric Medicine Equipment & Supply Bid 1399442400000 May 07, 2014 - May 06, 2018
13987 14-043RR-AM MPG 20122 Henry Schein Medical Sports/Pediatric Medicine Equipment & Supply Bid 1399442400000 May 07, 2014 - May 06, 2018
13988 14-043RR-AM MPG 11607 Medco Supply Co. Sports/Pediatric Medicine Equipment & Supply Bid 1399442400000 May 07, 2014 - May 06, 2018
13989 14-043RR-AM MPG 19037 Nasco Modesto Sports/Pediatric Medicine Equipment & Supply Bid 1399442400000 May 07, 2014 - May 06, 2018
13990 14-043RR-AM MPG 12314 School Health Corporation Sports/Pediatric Medicine Equipment & Supply Bid 1399442400000 May 07, 2014 - May 06, 2018
13991 14-050GR-SL SSS 40286 Ben Franklin Photography Photography Services for K-12 Schools 1398924000000 May 01, 2014 - Apr 30, 2018
13992 14-050GR-SL SSS 23139 Campos Creative School Portraits, Inc. Photography Services for K-12 Schools 1398924000000 May 01, 2014 - Apr 30, 2018
13994 14-050GR-SL SSS 38207 Kenneth Brown Photography Photography Services for K-12 Schools 1398924000000 May 01, 2014 - Apr 30, 2018
13995 14-050GR-SL SSS 24919 Lifetouch School Portraits Photography Services for K-12 Schools 1398924000000 May 01, 2014 - Apr 30, 2018
13997 14-050GR-SL SSS 40285 MJ Thomas Photography, Inc. Photography Services for K-12 Schools 1398924000000 May 01, 2014 - Apr 30, 2018
13998 14-050GR-SL SSS 24896 Moji Photography, dba One of a Kind Photography Photography Services for K-12 Schools 1398924000000 May 01, 2014 - Apr 30, 2018
13964 14-045MM-AM MPM 10172 American Fence Company of New Mexico Industrial Fencing Material and Installation on Demand 1398405600000 Apr 25, 2014 - Apr 24, 2018
13965 14-045MM-AM MPM 40284 TriWest Fence Industrial Fencing Material and Installation on Demand 1398405600000 Apr 25, 2014 - Apr 24, 2018
13966 14-045MM-AM MPM 23705 Valley Fence Company Industrial Fencing Material and Installation on Demand 1398405600000 Apr 25, 2014 - Apr 24, 2018
13962 14-047LJ-AM SLC/DWD 12520 Sun State Mechanical Inc. Evaporative Cooler Services 1397455200000 Apr 14, 2014 - Apr 13, 2018
13963 14-047LJ-AM SLC/DWD 10290 B&D Industries, Inc. Evaporative Cooler Services 1397455200000 Apr 14, 2014 - Apr 13, 2018
13957 14-037RR-AM SLC/DWD 23611 Alan White Signs Marquee Electronic L.E.D. & Related Materials 1395986400000 Mar 28, 2014 - Mar 27, 2018 Discount from List
13958 14-037RR-AM SLC/DWD 11507 M&J Sign Company Marquee Electronic L.E.D. & Related Materials 1395986400000 Mar 28, 2014 - Mar 27, 2018 Discount from List
13959 14-037RR-AM SLC/DWD 21971 Stewart Signs Marquee Electronic L.E.D. & Related Materials 1395986400000 Mar 28, 2014 - Mar 27, 2018 Discount from List
13960 14-038RR-SL SSS 32718 Rio Grande Travel Center Travel Services for APS 1395986400000 Mar 28, 2014 - Mar 27, 2018